Terminal Aerodrome Forecast
Issued by NWS

Home | Current Version | Previous Version | Text Only | Print | Product List | Glossary On
Versions: 1 2 3 4 5 6 7 8 9 10 11 12 13 14 15 16 17
833
FTAK31 PAJN 250545 AAA
TAFASI
TAF AMD
PASI 250545Z 2506/2606 11020G28KT 6SM -SHRA VCTS FEW015 BKN025CB
      OVC050 WS020/12040KT
     FM251200 12012G20KT 6SM -SHRA BKN030 OVC050 WS020/12040KT
      TEMPO 2512/2516 5SM -SHRA OVC025
     FM251800 10013KT P6SM VCSH OVC040
     FM260300 09008KT P6SM -SHRA SCT025 OVC040=

USA.gov is the U.S. government's official web portal to all federal, state and local government web resources and services.